Time;durP1;ratioP1;P1;durP2;ratioP2;P2;SDS_P1;SDS_P2;PMS_P1;PMS_P2;Temp;Humidity;BMP_temperature;BMP_pressure;BME280_temperature;BME280_humidity;BME280_pressure;Samples;Min_cycle;Max_cycle;Signal;HPM_P1;HPM_P2
2023/09/13 00:00:24;;;;;;;22.67;20.45;;;16.90;99.90;;;;;;5096581;28;20030;-62
2023/09/13 00:02:49;;;;;;;22.75;20.05;;;16.90;99.90;;;;;;5114883;28;20030;-62
2023/09/13 00:05:15;;;;;;;22.98;19.92;;;16.90;99.90;;;;;;5114795;28;20106;-62
2023/09/13 00:07:40;;;;;;;22.55;19.10;;;16.90;99.90;;;;;;5096630;28;20030;-62
2023/09/13 00:10:07;;;;;;;24.55;20.38;;;16.80;99.90;;;;;;5114841;28;20035;-62
2023/09/13 00:12:33;;;;;;;23.42;20.88;;;16.80;99.90;;;;;;5114895;28;20448;-62
2023/09/13 00:14:58;;;;;;;23.50;20.40;;;16.80;99.90;;;;;;5114636;28;20070;-62
2023/09/13 00:17:25;;;;;;;23.20;20.13;;;16.80;99.90;;;;;;5114682;28;20030;-62
2023/09/13 00:19:50;;;;;;;23.60;19.65;;;16.70;99.90;;;;;;5114591;28;20024;-62
2023/09/13 00:22:16;;;;;;;23.60;20.50;;;16.70;99.90;;;;;;5114729;28;20020;-62
2023/09/13 00:24:41;;;;;;;23.40;19.35;;;16.70;99.90;;;;;;5114538;28;20023;-62
2023/09/13 00:27:07;;;;;;;22.10;19.95;;;16.70;99.90;;;;;;5114903;28;20019;-62
2023/09/13 00:29:34;;;;;;;23.83;21.25;;;16.70;99.90;;;;;;5115550;28;20027;-62
2023/09/13 00:32:01;;;;;;;23.30;20.90;;;16.70;99.90;;;;;;5115592;28;20072;-66
2023/09/13 00:34:26;;;;;;;23.95;21.55;;;16.70;99.90;;;;;;5114868;28;20027;-62
2023/09/13 00:36:52;;;;;;;23.67;21.13;;;16.60;99.90;;;;;;5114826;28;20483;-63
2023/09/13 00:39:18;;;;;;;24.95;21.10;;;16.60;99.90;;;;;;5114851;28;20023;-62
2023/09/13 00:41:43;;;;;;;25.05;21.95;;;16.70;99.90;;;;;;5114129;28;20102;-62
2023/09/13 00:44:09;;;;;;;25.75;20.75;;;16.70;99.90;;;;;;5114841;28;20030;-62
2023/09/13 00:46:35;;;;;;;23.70;21.20;;;16.70;99.90;;;;;;5114576;28;20085;-62
2023/09/13 00:49:02;;;;;;;26.65;21.15;;;16.60;99.90;;;;;;5096834;28;20054;-62
2023/09/13 00:51:28;;;;;;;23.52;21.15;;;16.60;99.90;;;;;;5115221;28;20477;-62
2023/09/13 00:53:56;;;;;;;25.00;20.85;;;16.60;99.90;;;;;;5115509;28;20111;-62
2023/09/13 00:56:22;;;;;;;25.05;22.35;;;16.60;99.90;;;;;;5115047;28;20024;-63
2023/09/13 00:58:48;;;;;;;24.10;21.52;;;16.60;99.90;;;;;;5096291;28;20062;-62
2023/09/13 01:01:15;;;;;;;23.55;20.42;;;16.50;99.90;;;;;;5114388;28;20027;-62
2023/09/13 01:03:42;;;;;;;24.20;21.30;;;16.50;99.90;;;;;;5116155;28;20027;-63
2023/09/13 01:06:09;;;;;;;23.10;20.67;;;16.50;99.90;;;;;;5122948;28;20075;-62
2023/09/13 01:08:39;;;;;;;24.77;22.25;;;16.50;99.90;;;;;;5096481;28;20361;-62
2023/09/13 01:11:06;;;;;;;24.50;21.98;;;16.40;99.90;;;;;;5122469;28;20027;-63
2023/09/13 01:13:32;;;;;;;23.98;21.52;;;16.40;99.90;;;;;;5107068;28;20030;-62
2023/09/13 01:16:05;;;;;;;25.67;22.08;;;16.40;99.90;;;;;;5100167;28;20384;-62
2023/09/13 01:18:42;;;;;;;27.80;23.95;;;16.50;99.90;;;;;;5100538;28;20422;-62
2023/09/13 01:21:19;;;;;;;25.30;22.70;;;16.50;99.90;;;;;;5118126;28;20447;-62
2023/09/13 01:24:22;;;;;;;28.40;23.23;;;16.40;99.90;;;;;;5118088;28;20034;-62
2023/09/13 01:27:28;;;;;;;23.92;21.58;;;16.50;99.90;;;;;;5099675;28;20027;-62
2023/09/13 01:29:56;;;;;;;24.30;21.77;;;16.40;99.90;;;;;;5117708;28;20068;-62
2023/09/13 01:32:21;;;;;;;34.33;23.17;;;16.40;99.90;;;;;;5117843;28;20028;-62
2023/09/13 01:34:47;;;;;;;25.65;22.98;;;16.40;99.90;;;;;;5117781;28;20038;-62
2023/09/13 01:37:12;;;;;;;23.92;21.23;;;16.40;99.90;;;;;;5117781;28;20469;-62
2023/09/13 01:39:38;;;;;;;25.30;22.13;;;16.40;99.90;;;;;;5117751;28;20077;-62
2023/09/13 01:42:06;;;;;;;26.23;22.45;;;16.40;99.90;;;;;;5117829;28;20031;-62
2023/09/13 01:44:34;;;;;;;24.98;22.25;;;16.30;99.90;;;;;;5117729;28;20019;-62
2023/09/13 01:47:03;;;;;;;26.35;22.27;;;16.30;99.90;;;;;;5099427;28;20031;-62
2023/09/13 01:49:29;;;;;;;26.40;22.20;;;16.30;99.90;;;;;;5117688;28;20027;-62
2023/09/13 01:51:55;;;;;;;24.38;21.70;;;16.30;99.90;;;;;;5117534;28;20374;-62
2023/09/13 01:54:21;;;;;;;24.02;21.60;;;16.30;99.90;;;;;;5117856;28;20094;-62
2023/09/13 01:56:46;;;;;;;24.38;21.83;;;16.30;99.90;;;;;;5117611;28;20529;-62
2023/09/13 01:59:12;;;;;;;27.15;22.05;;;16.30;99.90;;;;;;5117589;28;20488;-62
2023/09/13 02:01:38;;;;;;;29.48;22.58;;;16.20;99.90;;;;;;5117292;28;20019;-62
2023/09/13 02:04:05;;;;;;;27.27;21.90;;;16.20;99.90;;;;;;5117404;28;20023;-62
2023/09/13 02:06:31;;;;;;;27.23;22.52;;;16.20;99.90;;;;;;5098969;28;20031;-62
2023/09/13 02:08:57;;;;;;;26.67;23.92;;;16.10;99.90;;;;;;5117708;28;20148;-62
2023/09/13 02:11:24;;;;;;;25.90;23.13;;;16.10;99.90;;;;;;5117210;28;20458;-62
2023/09/13 02:13:50;;;;;;;25.70;22.35;;;16.10;99.90;;;;;;5117128;28;20107;-62
2023/09/13 02:16:22;;;;;;;25.13;22.63;;;16.10;99.90;;;;;;5098678;28;20100;-62
2023/09/13 02:18:48;;;;;;;26.40;23.55;;;16.10;99.90;;;;;;5116900;28;20477;-62
2023/09/13 02:21:13;;;;;;;26.02;23.20;;;16.10;99.90;;;;;;5116715;28;20100;-62
2023/09/13 02:23:41;;;;;;;27.02;22.90;;;16.00;99.90;;;;;;5098652;28;20077;-62
2023/09/13 02:26:17;;;;;;;26.60;23.25;;;16.00;99.90;;;;;;5115567;28;20031;-62
2023/09/13 02:28:42;;;;;;;26.50;23.27;;;16.00;99.90;;;;;;5117007;28;20107;-62
2023/09/13 02:31:08;;;;;;;28.50;22.80;;;16.00;99.90;;;;;;5116521;28;20107;-62
2023/09/13 02:33:33;;;;;;;28.35;23.30;;;16.00;99.90;;;;;;5117086;28;20027;-62
2023/09/13 02:35:59;;;;;;;25.33;22.80;;;16.00;99.90;;;;;;5116970;28;20035;-62
2023/09/13 02:38:24;;;;;;;28.65;24.35;;;16.00;99.90;;;;;;5116984;28;20070;-62
2023/09/13 02:40:50;;;;;;;25.80;23.00;;;15.90;99.90;;;;;;5098354;28;20046;-62
2023/09/13 02:43:16;;;;;;;27.45;23.10;;;15.90;99.90;;;;;;5116779;28;20027;-62
2023/09/13 02:45:41;;;;;;;26.02;23.25;;;15.80;99.90;;;;;;5116566;28;20027;-62
2023/09/13 02:48:07;;;;;;;27.98;22.85;;;15.80;99.90;;;;;;5098270;28;20051;-62
2023/09/13 02:50:32;;;;;;;25.38;22.65;;;15.80;99.90;;;;;;5098188;28;20076;-62
2023/09/13 02:52:58;;;;;;;27.25;24.38;;;15.80;99.90;;;;;;5116778;28;20463;-62
2023/09/13 02:55:24;;;;;;;27.95;24.65;;;15.80;99.90;;;;;;5116668;28;20350;-62
2023/09/13 02:57:53;;;;;;;27.00;24.10;;;15.80;99.90;;;;;;5115939;28;20043;-62
2023/09/13 03:00:18;;;;;;;30.95;23.85;;;15.80;99.90;;;;;;5116088;28;20500;-62
2023/09/13 03:02:44;;;;;;;26.92;23.83;;;15.80;99.90;;;;;;5116205;28;20028;-62
2023/09/13 03:05:10;;;;;;;29.45;24.52;;;15.80;99.90;;;;;;5116291;28;20085;-62
2023/09/13 03:07:35;;;;;;;25.65;22.38;;;15.70;99.90;;;;;;5116347;28;20024;-62
2023/09/13 03:10:01;;;;;;;30.83;24.50;;;15.70;99.90;;;;;;5116124;28;20020;-62
2023/09/13 03:12:27;;;;;;;27.58;24.70;;;15.70;99.90;;;;;;5097569;28;20069;-62
2023/09/13 03:14:56;;;;;;;31.25;25.02;;;15.70;99.90;;;;;;5115568;28;20107;-62
2023/09/13 03:17:21;;;;;;;31.00;24.05;;;15.70;99.90;;;;;;5115948;28;20380;-62
2023/09/13 03:19:47;;;;;;;26.70;23.98;;;15.70;99.90;;;;;;5116098;28;20028;-62
2023/09/13 03:22:12;;;;;;;29.52;24.20;;;15.70;99.90;;;;;;5115847;28;20034;-62
2023/09/13 03:24:38;;;;;;;32.28;24.40;;;15.70;99.90;;;;;;5097488;28;20066;-62
2023/09/13 03:27:04;;;;;;;26.88;23.90;;;15.70;99.90;;;;;;5097307;28;20449;-62
2023/09/13 03:29:29;;;;;;;27.55;24.55;;;15.70;99.90;;;;;;5115648;28;20032;-62
2023/09/13 03:31:55;;;;;;;26.38;23.65;;;15.70;99.90;;;;;;5115484;28;20449;-62
2023/09/13 03:34:21;;;;;;;25.95;22.98;;;15.60;99.90;;;;;;5115363;28;20072;-62
2023/09/13 03:36:46;;;;;;;31.38;24.27;;;15.60;99.90;;;;;;5097427;28;20030;-63
2023/09/13 03:39:12;;;;;;;31.30;23.42;;;15.60;99.90;;;;;;5117400;28;20532;-64
2023/09/13 03:41:37;;;;;;;26.55;23.77;;;15.60;99.90;;;;;;5098829;28;20027;-62
2023/09/13 03:44:03;;;;;;;34.42;26.00;;;15.60;99.90;;;;;;5098360;28;20045;-62
2023/09/13 03:46:29;;;;;;;26.05;23.17;;;15.70;99.90;;;;;;5116395;28;20457;-63
2023/09/13 03:48:55;;;;;;;27.85;23.15;;;15.60;99.90;;;;;;5115913;28;20077;-62
2023/09/13 03:51:20;;;;;;;27.38;23.80;;;15.60;99.90;;;;;;5114963;28;20024;-62
2023/09/13 03:53:47;;;;;;;26.60;23.65;;;15.50;99.90;;;;;;5115180;28;20027;-62
2023/09/13 03:56:12;;;;;;;27.83;23.58;;;15.50;99.90;;;;;;5096352;28;20032;-62
2023/09/13 03:58:38;;;;;;;27.33;24.42;;;15.50;99.90;;;;;;5096540;28;20034;-62
2023/09/13 04:01:04;;;;;;;28.98;25.48;;;15.50;99.90;;;;;;5114728;28;20502;-67
2023/09/13 04:03:30;;;;;;;27.77;24.42;;;15.50;99.90;;;;;;5114707;28;20098;-65
2023/09/13 04:05:56;;;;;;;26.02;23.38;;;15.50;99.90;;;;;;5096333;28;20032;-65
2023/09/13 04:08:21;;;;;;;28.35;25.45;;;15.50;99.90;;;;;;5114652;28;20031;-66
2023/09/13 04:10:47;;;;;;;28.45;23.85;;;15.50;99.90;;;;;;5114393;28;20516;-65
2023/09/13 04:13:13;;;;;;;32.55;25.63;;;15.50;99.90;;;;;;5114494;28;20126;-65
2023/09/13 04:15:38;;;;;;;26.50;23.70;;;15.50;99.90;;;;;;5114641;28;20032;-65
2023/09/13 04:18:04;;;;;;;33.17;26.30;;;15.40;99.90;;;;;;5115337;28;20085;-65
2023/09/13 04:20:30;;;;;;;28.25;24.02;;;15.40;99.90;;;;;;5115208;28;20081;-62
2023/09/13 04:22:56;;;;;;;28.13;23.83;;;15.50;99.90;;;;;;5115138;28;20028;-62
2023/09/13 04:25:21;;;;;;;26.52;23.50;;;15.50;99.90;;;;;;5115221;28;20039;-62
2023/09/13 04:27:48;;;;;;;25.88;23.20;;;15.50;99.90;;;;;;5114664;28;20034;-62
2023/09/13 04:30:15;;;;;;;32.40;23.48;;;15.50;99.90;;;;;;5114329;28;20039;-62
2023/09/13 04:32:42;;;;;;;27.23;23.45;;;15.50;99.90;;;;;;5079793;28;20126;-62
2023/09/13 04:35:08;;;;;;;24.70;22.08;;;15.60;99.90;;;;;;5114174;28;20036;-62
2023/09/13 04:37:34;;;;;;;25.25;22.20;;;15.60;99.90;;;;;;5114323;28;20072;-62
2023/09/13 04:40:07;;;;;;;26.23;22.80;;;15.60;99.90;;;;;;5114296;28;20404;-62
2023/09/13 04:42:42;;;;;;;24.60;21.38;;;15.60;99.90;;;;;;5113810;28;20480;-62
2023/09/13 04:45:08;;;;;;;32.08;21.92;;;15.60;99.90;;;;;;5114009;28;20040;-62
2023/09/13 04:47:35;;;;;;;24.88;21.98;;;15.60;99.90;;;;;;5113983;28;20020;-62
2023/09/13 04:50:01;;;;;;;27.98;21.60;;;15.60;99.90;;;;;;5113560;28;20384;-62
2023/09/13 04:52:26;;;;;;;25.95;21.92;;;15.60;99.90;;;;;;5113664;28;20043;-61
2023/09/13 04:54:52;;;;;;;26.17;21.83;;;15.60;99.90;;;;;;5114084;28;20027;-61
2023/09/13 04:57:17;;;;;;;26.48;22.25;;;15.70;99.90;;;;;;5114206;28;20028;-61
2023/09/13 04:59:48;;;;;;;25.23;21.00;;;15.70;99.90;;;;;;5113861;28;20426;-62
2023/09/13 05:02:14;;;;;;;31.65;22.23;;;15.70;99.90;;;;;;5114259;28;20020;-62
2023/09/13 05:04:39;;;;;;;22.13;19.70;;;15.80;99.90;;;;;;5114064;28;20111;-62
2023/09/13 05:07:05;;;;;;;26.13;21.48;;;15.80;99.90;;;;;;5114006;28;20370;-62
2023/09/13 05:09:31;;;;;;;27.88;20.17;;;15.80;99.90;;;;;;5114200;28;20066;-63
2023/09/13 05:11:57;;;;;;;22.75;19.48;;;15.90;99.90;;;;;;5114162;28;20024;-62
2023/09/13 05:14:23;;;;;;;24.90;20.15;;;16.00;99.90;;;;;;5095879;28;20059;-62
2023/09/13 05:16:49;;;;;;;29.80;19.75;;;16.00;99.90;;;;;;5095603;28;20104;-62
2023/09/13 05:19:14;;;;;;;21.55;19.25;;;16.10;99.90;;;;;;5114005;28;20024;-63
2023/09/13 05:21:40;;;;;;;21.70;19.02;;;16.20;99.90;;;;;;5113878;28;20381;-62
2023/09/13 05:24:06;;;;;;;20.58;18.42;;;16.20;99.90;;;;;;5113906;28;20174;-62
2023/09/13 05:26:31;;;;;;;20.15;18.10;;;16.30;99.90;;;;;;5095631;28;20413;-62
2023/09/13 05:28:57;;;;;;;24.70;17.98;;;16.40;99.90;;;;;;5113822;28;20027;-62
2023/09/13 05:31:23;;;;;;;21.20;17.20;;;16.50;99.90;;;;;;5095649;28;20027;-62
2023/09/13 05:33:48;;;;;;;19.33;16.63;;;16.60;99.90;;;;;;5095381;28;20366;-62
2023/09/13 05:36:15;;;;;;;24.02;17.17;;;16.80;99.90;;;;;;5095462;28;20031;-62
2023/09/13 05:38:41;;;;;;;21.55;16.55;;;16.90;99.90;;;;;;5113886;28;20023;-62
2023/09/13 05:41:11;;;;;;;17.20;15.45;;;17.10;99.90;;;;;;5113654;28;20055;-62
2023/09/13 05:43:41;;;;;;;19.75;16.05;;;17.30;99.90;;;;;;5113300;28;20028;-62
2023/09/13 05:46:07;;;;;;;19.55;14.75;;;17.30;99.90;;;;;;5114309;28;20024;-62
2023/09/13 05:48:34;;;;;;;18.77;14.35;;;17.50;99.90;;;;;;5113571;28;20442;-63
2023/09/13 05:51:00;;;;;;;16.25;14.60;;;17.70;99.90;;;;;;5113992;28;20062;-62
2023/09/13 05:53:26;;;;;;;18.23;14.15;;;17.70;99.90;;;;;;5114075;28;20080;-62
2023/09/13 05:55:51;;;;;;;16.27;14.65;;;17.70;99.90;;;;;;5113747;28;20028;-62
2023/09/13 05:58:17;;;;;;;16.48;13.95;;;17.80;99.90;;;;;;5113597;28;20020;-62
2023/09/13 06:00:46;;;;;;;15.63;14.10;;;17.80;99.90;;;;;;5096718;28;20119;-62
2023/09/13 06:03:12;;;;;;;17.92;13.70;;;17.90;99.90;;;;;;5117501;28;20043;-62
2023/09/13 06:05:38;;;;;;;16.73;13.23;;;18.00;99.90;;;;;;5116925;28;20036;-62
2023/09/13 06:08:04;;;;;;;17.95;13.52;;;18.10;99.90;;;;;;5082066;28;20035;-62
2023/09/13 06:10:30;;;;;;;18.60;13.45;;;18.30;99.90;;;;;;5116901;28;20493;-62
2023/09/13 06:12:55;;;;;;;16.00;13.02;;;18.40;99.90;;;;;;5117352;28;20110;-63
2023/09/13 06:15:21;;;;;;;15.98;13.07;;;18.50;99.90;;;;;;5117099;28;20054;-63
2023/09/13 06:17:47;;;;;;;17.35;12.40;;;18.70;99.90;;;;;;5117468;28;20031;-63
2023/09/13 06:20:13;;;;;;;15.25;12.18;;;18.90;99.90;;;;;;5117051;28;20373;-62
2023/09/13 06:22:38;;;;;;;17.38;12.52;;;19.20;99.90;;;;;;5116670;28;20030;-62
2023/09/13 06:25:05;;;;;;;12.23;10.95;;;19.60;99.90;;;;;;5116940;28;20023;-63
2023/09/13 06:27:30;;;;;;;17.27;12.10;;;19.90;99.90;;;;;;5098662;28;20019;-62
2023/09/13 06:29:56;;;;;;;13.82;11.05;;;20.20;99.90;;;;;;5098473;28;20479;-62
2023/09/13 06:32:22;;;;;;;17.63;11.57;;;20.40;99.90;;;;;;5116793;28;20027;-62
2023/09/13 06:34:48;;;;;;;12.93;10.07;;;20.60;99.90;;;;;;5116516;28;20093;-62
2023/09/13 06:37:14;;;;;;;11.52;10.43;;;20.50;99.90;;;;;;5116605;28;20023;-62
2023/09/13 06:39:40;;;;;;;14.05;11.07;;;20.50;99.90;;;;;;5116532;28;20024;-62
2023/09/13 06:42:06;;;;;;;12.43;10.90;;;20.40;99.90;;;;;;5116271;28;20016;-62
2023/09/13 06:44:33;;;;;;;13.35;9.95;;;20.50;99.90;;;;;;5116542;28;20027;-62
2023/09/13 06:46:58;;;;;;;11.93;10.73;;;20.50;99.90;;;;;;5116446;28;20473;-62
2023/09/13 06:49:24;;;;;;;11.38;10.20;;;20.70;99.90;;;;;;5116271;28;20030;-62
2023/09/13 06:51:50;;;;;;;18.08;10.30;;;21.00;99.90;;;;;;5097778;28;20104;-62
2023/09/13 06:54:18;;;;;;;10.63;9.57;;;21.70;99.90;;;;;;5116758;28;20454;-62
2023/09/13 06:56:44;;;;;;;11.38;9.13;;;22.40;99.90;;;;;;5116287;28;20027;-62
2023/09/13 06:59:09;;;;;;;11.48;8.60;;;22.80;99.90;;;;;;5116165;28;20372;-65
2023/09/13 07:01:35;;;;;;;9.90;8.38;;;23.50;99.90;;;;;;5116486;28;20027;-62
2023/09/13 07:04:02;;;;;;;9.18;8.15;;;24.20;99.90;;;;;;5116009;28;20511;-64
2023/09/13 07:06:28;;;;;;;12.00;8.38;;;25.00;99.90;;;;;;5098149;28;20059;-64
2023/09/13 07:08:54;;;;;;;10.07;7.72;;;25.40;99.90;;;;;;5097622;28;20101;-64
2023/09/13 07:11:19;;;;;;;10.98;8.10;;;25.70;99.90;;;;;;5116231;28;20039;-64
2023/09/13 07:13:45;;;;;;;12.45;7.85;;;25.60;99.90;;;;;;5096717;28;20031;-60
2023/09/13 07:16:10;;;;;;;9.35;7.53;;;25.40;99.90;;;;;;5115886;28;20032;-60
2023/09/13 07:18:36;;;;;;;11.15;8.38;;;25.20;99.90;;;;;;5115942;28;20032;-60
2023/09/13 07:21:02;;;;;;;9.82;7.80;;;24.90;99.90;;;;;;5115652;28;20373;-62
2023/09/13 07:23:28;;;;;;;9.25;7.85;;;24.90;99.90;;;;;;5097424;28;20073;-62
2023/09/13 07:25:53;;;;;;;11.32;7.57;;;25.00;99.90;;;;;;5115863;28;20028;-62
2023/09/13 07:28:20;;;;;;;8.23;7.35;;;25.10;99.90;;;;;;5115459;28;20114;-62
2023/09/13 07:30:46;;;;;;;9.18;7.25;;;25.00;99.90;;;;;;5115701;28;20024;-62
2023/09/13 07:33:12;;;;;;;8.93;7.32;;;25.10;99.90;;;;;;5097513;28;20035;-62
2023/09/13 07:35:37;;;;;;;7.80;7.00;;;25.20;99.90;;;;;;5115612;28;20385;-62
2023/09/13 07:38:03;;;;;;;7.07;6.38;;;25.50;99.90;;;;;;5115508;28;20399;-62
2023/09/13 07:40:29;;;;;;;7.75;6.68;;;25.40;99.50;;;;;;5117095;28;20107;-61
2023/09/13 07:42:54;;;;;;;8.10;6.90;;;25.30;99.70;;;;;;5118052;28;20092;-62
2023/09/13 07:45:20;;;;;;;8.80;6.60;;;25.50;99.50;;;;;;5118099;28;20034;-62
2023/09/13 07:47:46;;;;;;;7.85;6.63;;;25.90;98.20;;;;;;5118702;28;20072;-61
2023/09/13 07:50:32;;;;;;;8.98;6.82;;;26.10;97.50;;;;;;5116334;28;20110;-64
2023/09/13 07:52:58;;;;;;;13.02;6.03;;;26.40;97.00;;;;;;5093452;28;20374;-62
2023/09/13 07:55:24;;;;;;;7.57;6.43;;;26.80;96.10;;;;;;5094874;28;20024;-62
2023/09/13 07:57:50;;;;;;;8.25;5.90;;;27.10;95.40;;;;;;5093439;28;20028;-64
2023/09/13 08:00:16;;;;;;;6.60;5.90;;;27.50;94.30;;;;;;5095159;28;20030;-64
2023/09/13 08:02:41;;;;;;;6.85;5.32;;;27.70;93.40;;;;;;5094650;28;20103;-66
2023/09/13 08:05:08;;;;;;;6.68;5.32;;;28.10;92.20;;;;;;5094669;28;20100;-66
2023/09/13 08:07:33;;;;;;;8.45;5.15;;;28.40;90.80;;;;;;5094595;28;20451;-66
2023/09/13 08:10:02;;;;;;;5.90;5.13;;;28.90;89.80;;;;;;5094555;28;20063;-66
2023/09/13 08:12:28;;;;;;;;;;;29.20;86.70;;;;;;5095126;28;20061;-62
2023/09/13 08:14:53;;;;;;;6.57;5.05;;;29.40;85.40;;;;;;5094356;28;19909;-62
2023/09/13 08:17:19;;;;;;;5.20;4.70;;;28.90;83.70;;;;;;5093138;28;20470;-62
2023/09/13 08:19:46;;;;;;;6.15;4.72;;;28.80;83.60;;;;;;5091052;28;20044;-63
2023/09/13 08:22:13;;;;;;;6.60;4.95;;;29.00;82.30;;;;;;5079523;28;20020;-67
2023/09/13 08:24:38;;;;;;;7.10;4.85;;;29.20;80.30;;;;;;5085436;28;20020;-62
2023/09/13 08:27:05;;;;;;;5.35;4.07;;;28.80;80.70;;;;;;5094204;28;20485;-62
2023/09/13 08:29:31;;;;;;;5.25;4.32;;;29.20;78.90;;;;;;5094108;28;20032;-61
2023/09/13 08:31:57;;;;;;;6.63;4.50;;;28.80;78.20;;;;;;5094249;28;20377;-62
2023/09/13 08:34:25;;;;;;;5.55;4.30;;;28.10;78.70;;;;;;5094500;28;20032;-60
2023/09/13 08:36:53;;;;;;;;;;;27.20;79.70;;;;;;5093588;28;20035;-61
2023/09/13 08:39:19;;;;;;;4.68;4.18;;;26.70;82.10;;;;;;5094509;28;20431;-59
2023/09/13 08:41:50;;;;;;;6.30;4.00;;;27.10;81.80;;;;;;5094309;28;20028;-60
2023/09/13 08:44:21;;;;;;;8.93;3.90;;;27.40;80.80;;;;;;5094467;28;20056;-60
2023/09/13 08:46:51;;;;;;;5.78;3.95;;;27.30;80.50;;;;;;5092976;28;20122;-60
2023/09/13 08:49:17;;;;;;;5.95;3.92;;;27.40;80.70;;;;;;5094028;28;20107;-60
2023/09/13 08:51:47;;;;;;;5.57;4.32;;;28.40;79.20;;;;;;5097863;28;20493;-60
2023/09/13 08:54:17;;;;;;;4.45;4.03;;;29.20;77.00;;;;;;5113952;28;20384;-62
2023/09/13 08:56:45;;;;;;;4.82;3.97;;;29.50;74.80;;;;;;5095956;28;20527;-60
2023/09/13 08:59:12;;;;;;;7.47;3.70;;;29.80;74.20;;;;;;5096037;28;20496;-60
2023/09/13 09:01:40;;;;;;;4.50;3.50;;;30.20;71.90;;;;;;5114477;28;20045;-60
2023/09/13 09:04:05;;;;;;;5.03;3.80;;;30.80;70.80;;;;;;5114408;28;20020;-60
2023/09/13 09:06:32;;;;;;;5.53;4.07;;;30.80;68.70;;;;;;5114303;28;20153;-61
2023/09/13 09:08:58;;;;;;;4.35;3.65;;;31.00;67.30;;;;;;5114468;28;20028;-61
2023/09/13 09:11:27;;;;;;;4.25;3.67;;;31.50;66.20;;;;;;5115123;28;20032;-62
2023/09/13 09:14:00;;;;;;;5.93;3.70;;;31.90;64.80;;;;;;5101834;28;20106;-61
2023/09/13 09:16:27;;;;;;;5.10;3.78;;;32.00;63.40;;;;;;5101409;28;20063;-61
2023/09/13 09:18:54;;;;;;;3.80;3.50;;;32.40;62.50;;;;;;5119151;28;20034;-61
2023/09/13 09:21:20;;;;;;;6.65;3.85;;;31.90;62.40;;;;;;5117824;28;20057;-61
2023/09/13 09:23:46;;;;;;;4.50;3.83;;;31.20;62.90;;;;;;5115670;28;20027;-61
2023/09/13 09:26:12;;;;;;;7.03;3.83;;;30.50;64.80;;;;;;5114076;28;20430;-61
2023/09/13 09:28:37;;;;;;;4.78;4.28;;;30.30;65.70;;;;;;5095931;28;20024;-61
2023/09/13 09:31:03;;;;;;;7.88;3.90;;;30.30;65.40;;;;;;5114089;28;20024;-61
2023/09/13 09:33:31;;;;;;;4.22;3.83;;;30.10;66.10;;;;;;5114093;28;20476;-61
2023/09/13 09:35:59;;;;;;;5.75;4.22;;;30.40;66.10;;;;;;5115311;28;20032;-61
2023/09/13 09:38:28;;;;;;;10.13;4.13;;;30.20;65.50;;;;;;5117949;28;20031;-61
2023/09/13 09:41:02;;;;;;;5.28;3.80;;;29.70;65.80;;;;;;5117555;28;20411;-61
2023/09/13 09:43:28;;;;;;;5.40;4.07;;;29.20;67.10;;;;;;5117596;28;20038;-61
2023/09/13 09:45:54;;;;;;;5.40;3.22;;;29.20;67.80;;;;;;5099410;28;20422;-61
2023/09/13 09:48:20;;;;;;;6.90;3.70;;;29.50;66.90;;;;;;5117886;28;20116;-61
2023/09/13 09:50:51;;;;;;;4.22;3.78;;;30.30;65.90;;;;;;5117590;28;20061;-62
2023/09/13 09:53:17;;;;;;;4.90;3.45;;;31.30;64.50;;;;;;5117228;28;20521;-61
2023/09/13 09:55:45;;;;;;;6.72;3.42;;;32.00;62.70;;;;;;5117755;28;20059;-61
2023/09/13 09:58:10;;;;;;;5.07;3.50;;;33.10;61.20;;;;;;5117850;28;20464;-62
2023/09/13 10:00:50;;;;;;;4.63;3.58;;;33.00;59.30;;;;;;5117427;28;20026;-61
2023/09/13 10:03:20;;;;;;;4.10;3.72;;;32.00;58.70;;;;;;5117355;28;20112;-61
2023/09/13 10:06:10;;;;;;;5.60;3.55;;;31.50;59.80;;;;;;5117069;28;20465;-61
2023/09/13 10:08:46;;;;;;;5.93;3.28;;;31.40;60.10;;;;;;5117357;28;20161;-61
2023/09/13 10:11:13;;;;;;;7.35;3.58;;;31.20;59.30;;;;;;5117025;28;20052;-61
2023/09/13 10:13:41;;;;;;;4.30;3.25;;;30.60;60.40;;;;;;5117716;28;20026;-61
2023/09/13 10:16:08;;;;;;;3.70;3.33;;;30.20;61.50;;;;;;5116773;28;20485;-61
2023/09/13 10:18:41;;;;;;;6.15;3.22;;;29.70;62.30;;;;;;5117182;28;20107;-61
2023/09/13 10:21:08;;;;;;;4.47;3.28;;;29.30;63.50;;;;;;5116986;28;20108;-61
2023/09/13 10:24:01;;;;;;;3.20;2.90;;;29.10;63.20;;;;;;5117052;28;20034;-61
2023/09/13 10:26:30;;;;;;;4.35;3.30;;;28.90;64.60;;;;;;5103864;28;20043;-61
2023/09/13 10:29:07;;;;;;;3.28;2.97;;;28.60;64.00;;;;;;5116735;28;20378;-61
2023/09/13 10:31:38;;;;;;;5.00;3.70;;;28.60;64.40;;;;;;5098379;28;20023;-60
2023/09/13 10:34:09;;;;;;;7.90;3.17;;;28.40;64.50;;;;;;5116812;28;20028;-60
2023/09/13 10:36:41;;;;;;;7.65;2.78;;;28.60;64.80;;;;;;5116727;28;20032;-60
2023/09/13 10:39:26;;;;;;;3.90;2.72;;;29.20;64.30;;;;;;5098082;28;20035;-61
2023/09/13 10:42:01;;;;;;;6.35;2.80;;;30.20;61.90;;;;;;5116218;28;20462;-61
2023/09/13 10:44:27;;;;;;;4.55;3.03;;;30.30;61.20;;;;;;5116537;28;20034;-61
2023/09/13 10:46:54;;;;;;;6.00;3.00;;;30.40;61.60;;;;;;5115089;28;20031;-61
2023/09/13 10:49:20;;;;;;;5.43;3.20;;;30.60;61.30;;;;;;5116324;28;20031;-61
2023/09/13 10:51:47;;;;;;;4.43;3.40;;;30.80;60.70;;;;;;5116276;28;20054;-61
2023/09/13 10:54:16;;;;;;;4.78;3.42;;;30.40;60.70;;;;;;5116335;28;20020;-61
2023/09/13 10:56:41;;;;;;;3.53;3.00;;;29.90;61.70;;;;;;5116272;28;20032;-61
2023/09/13 10:59:09;;;;;;;6.03;3.97;;;29.50;62.80;;;;;;5116421;28;20114;-61
2023/09/13 11:01:36;;;;;;;4.18;3.78;;;29.20;63.30;;;;;;5116165;28;20102;-61
2023/09/13 11:04:04;;;;;;;3.65;2.70;;;29.10;64.30;;;;;;5116509;28;20015;-61
2023/09/13 11:06:30;;;;;;;5.10;3.23;;;29.00;64.20;;;;;;5116979;28;20035;-61
2023/09/13 11:09:13;;;;;;;4.47;3.33;;;28.90;64.50;;;;;;5116765;28;20664;-62
2023/09/13 11:11:44;;;;;;;5.80;3.28;;;29.00;64.90;;;;;;5116516;28;20069;-61
2023/09/13 11:14:12;;;;;;;9.10;4.22;;;29.00;64.40;;;;;;5116002;28;20381;-61
2023/09/13 11:16:39;;;;;;;4.13;3.10;;;29.10;64.60;;;;;;5097436;28;20028;-60
2023/09/13 11:19:09;;;;;;;3.80;2.80;;;29.10;63.50;;;;;;5097564;28;20080;-61
2023/09/13 11:22:06;;;;;;;7.25;2.97;;;29.80;62.30;;;;;;5097913;28;20430;-61
2023/09/13 11:24:35;;;;;;;3.88;2.50;;;30.30;61.10;;;;;;5094640;28;20031;-61
2023/09/13 11:27:09;;;;;;;;;;;30.80;60.30;;;;;;5116052;28;20027;-61
2023/09/13 11:29:41;;;;;;;4.78;3.13;;;30.90;59.60;;;;;;5115644;28;19904;-61
2023/09/13 11:32:09;;;;;;;6.38;3.20;;;31.50;59.00;;;;;;5115658;28;20027;-61
2023/09/13 11:34:37;;;;;;;5.35;3.28;;;32.00;58.90;;;;;;5115977;28;20020;-61
2023/09/13 11:37:07;;;;;;;3.45;3.00;;;32.20;57.90;;;;;;5115529;28;20529;-62
2023/09/13 11:39:33;;;;;;;10.30;2.95;;;32.90;56.60;;;;;;5115747;28;20039;-62
2023/09/13 11:41:59;;;;;;;3.72;3.00;;;33.10;55.90;;;;;;5115304;28;20110;-61
2023/09/13 11:44:26;;;;;;;3.58;2.80;;;33.60;55.70;;;;;;5097772;28;20055;-61
2023/09/13 11:46:53;;;;;;;5.10;2.83;;;33.50;53.90;;;;;;5115238;28;20023;-64
2023/09/13 11:49:28;;;;;;;2.95;2.72;;;34.20;53.70;;;;;;5115585;28;20027;-62
2023/09/13 11:51:57;;;;;;;3.88;3.05;;;34.80;52.50;;;;;;5115083;28;20051;-63
2023/09/13 11:54:24;;;;;;;4.03;2.53;;;35.50;51.50;;;;;;5115008;28;20107;-63
2023/09/13 11:56:52;;;;;;;3.30;3.00;;;36.10;50.50;;;;;;5115085;28;20124;-63
2023/09/13 11:59:30;;;;;;;3.25;2.70;;;35.90;50.20;;;;;;5114838;28;20067;-64
2023/09/13 12:01:55;;;;;;;4.10;2.95;;;36.70;49.80;;;;;;5114939;28;20027;-62
2023/09/13 12:04:24;;;;;;;3.75;3.40;;;36.60;49.00;;;;;;5114616;28;20381;-64
2023/09/13 12:06:52;;;;;;;3.50;3.20;;;36.00;49.70;;;;;;5115135;28;20050;-63
2023/09/13 12:09:19;;;;;;;;;;;35.70;49.50;;;;;;5115363;28;20026;-62
2023/09/13 12:11:49;;;;;;;3.50;3.10;;;36.00;49.70;;;;;;5114995;28;19927;-62
2023/09/13 12:14:15;;;;;;;4.20;3.28;;;35.40;50.00;;;;;;5114782;28;20023;-66
2023/09/13 12:16:42;;;;;;;3.47;3.17;;;34.40;51.00;;;;;;5096312;28;20537;-62
2023/09/13 12:19:12;;;;;;;4.93;3.83;;;32.90;53.10;;;;;;5096494;28;20127;-60
2023/09/13 12:21:43;;;;;;;3.85;3.20;;;32.30;54.60;;;;;;5114917;28;20422;-60
2023/09/13 12:24:12;;;;;;;7.20;3.60;;;32.60;53.70;;;;;;5114561;28;20513;-60
2023/09/13 12:26:39;;;;;;;5.68;3.78;;;32.80;55.30;;;;;;5114449;28;20028;-60
2023/09/13 12:29:05;;;;;;;4.07;3.00;;;32.90;53.30;;;;;;5114426;28;20103;-59
2023/09/13 12:31:30;;;;;;;4.20;3.42;;;33.00;52.60;;;;;;5114078;28;20118;-60
2023/09/13 12:33:58;;;;;;;7.55;4.32;;;33.00;53.10;;;;;;5114125;28;20020;-60
2023/09/13 12:36:24;;;;;;;5.07;3.65;;;33.00;53.00;;;;;;5114052;28;20068;-60